Aérodrome :
LOGIN :

S'inscrire | Disclaimer

   EN    FR    IT 

 










Légende :    VFR   VFR Marginal   IFR   IFR Intensif   IFR Très Intensif
Visi : 
Plafond : 
>= 8 km
>= 3000ft
5 à 8 km
1000 à 3000 ft
1500m à 5 km
500 à 1000 ft
800 à 1500m
200 à 500 ft
< 800m
< 200 ft
Symboles :   Orages  Brouillard  Fortes neiges  Fortes précipitations  Vent > 20 kt
SIGMETs :   Divers  Orages  Givrage  Turbulence  Onde Orograph.  Cendres Volcan.






- Altitude de l'aérodrome : 665 ft
- Code IATA : NOC


EIKN - Connaught / Knock- Ireland West

DERNIER METAR :
  • 110530Z 21006KT 180V250 6000 -SHSN SCT012 BKN017CB BKN032 01/01 Q0996 NOSIG

METARs EXPIRÉS :
  • 110500Z 23007KT 190V270 8000 -SHRASN BKN017CB SCT022 BKN038 01/01 Q0997 NOSIG

TAF COR TAF EIKN
Valide du 11 à 06h jusqu'au 12 à 06h UTC


110533Z 1106/1206 22013KT 9999 FEW010 BKN025
TEMPO 1106/1119 4000 SHRAGS BKN010 SCT018CB
PROB40
TEMPO 1106/1110 2000 -SHSN BKN005
BECMG 1107/1109 25012KT
PROB30
TEMPO 1109/1116 27015G26KT
BECMG 1117/1120 23007KT
PROB30
TEMPO 1120/1122 4000 BR
BECMG 1122/1124 18007KT 3000 -RA BKN008
BECMG 1200/1203 16012KT
TEMPO 1200/1206 1800 BKN004
PROB30
TEMPO 1203/1206 0800 FG BKN002
BECMG 1204/1206 16007KT



MET'MAP, la Météo Aéronautique d'un coup d'oeil ! - Copyright ORBIFLY Décembre 2007 - Disclaimer

ORBIFLY MET'MAP TEAM :

Programmation & Développement : Alexandra Zaïnal
Sur une idée originale de : Baudouin d'Aumeries
Assistance à la programmation : Marc-Olivier Méhu
Soutien technique & logistique : Manuel Goepfert

Contact : metmap@orbifly.com




SOURCES & CREDITS :

   NOAA